createdAt,value
2023-05-26T06:27:35.214Z,4.70
2023-05-26T06:30:02.997Z,4.50
2023-05-26T06:32:30.985Z,4.70
2023-05-26T06:34:58.204Z,5.00
2023-05-26T06:37:25.256Z,5.00
2023-05-26T06:39:52.308Z,5.30
2023-05-26T06:42:22.314Z,5.10
2023-05-26T06:44:51.475Z,4.90
2023-05-26T06:47:25.187Z,4.20
2023-05-26T06:50:00.566Z,3.50
2023-05-26T06:52:27.688Z,4.10
2023-05-26T06:54:54.751Z,4.70
2023-05-26T06:57:21.917Z,4.30
2023-05-26T06:59:49.070Z,4.60
2023-05-26T07:02:16.539Z,4.40
2023-05-26T07:04:45.112Z,4.70
2023-05-26T07:07:12.387Z,4.90
2023-05-26T07:09:39.503Z,4.60
2023-05-26T07:12:11.456Z,4.70
2023-05-26T07:14:48.038Z,3.80
2023-05-26T07:17:15.875Z,3.30
2023-05-26T07:19:44.903Z,3.80
2023-05-26T07:22:12.908Z,4.20
2023-05-26T07:24:50.668Z,4.30
2023-05-26T07:27:26.154Z,3.80
2023-05-26T07:29:53.253Z,3.90
2023-05-26T07:32:20.373Z,4.00
2023-05-26T07:34:47.917Z,4.40
2023-05-26T07:37:15.010Z,4.40
2023-05-26T07:39:42.027Z,3.90
2023-05-26T07:42:09.215Z,4.40
2023-05-26T07:44:36.457Z,3.90
2023-05-26T07:47:03.613Z,3.50
2023-05-26T07:49:30.598Z,3.70
2023-05-26T07:51:57.805Z,4.10
2023-05-26T07:54:24.809Z,4.20
2023-05-26T07:56:55.613Z,4.30
2023-05-26T07:59:22.840Z,3.90
2023-05-26T08:01:50.185Z,4.10
2023-05-26T08:04:17.610Z,4.30
2023-05-26T08:06:44.565Z,4.20
2023-05-26T08:09:12.319Z,4.60
2023-05-26T08:11:39.444Z,3.70
2023-05-26T08:14:06.409Z,4.00
2023-05-26T08:16:33.590Z,3.60
2023-05-26T08:19:01.018Z,3.30
2023-05-26T08:21:27.975Z,3.80
2023-05-26T08:23:54.970Z,3.80
2023-05-26T08:26:21.943Z,4.10
2023-05-26T08:28:48.954Z,4.00
2023-05-26T08:31:15.982Z,4.00
2023-05-26T08:33:43.147Z,3.90
2023-05-26T08:36:10.607Z,3.90
2023-05-26T08:38:37.905Z,3.70
2023-05-26T08:41:07.011Z,3.90
2023-05-26T08:43:46.714Z,4.00
2023-05-26T08:46:16.810Z,4.30
2023-05-26T08:48:45.939Z,3.50
2023-05-26T08:51:13.725Z,3.50
2023-05-26T08:53:41.544Z,3.10
2023-05-26T08:56:10.530Z,3.80
2023-05-26T08:58:38.196Z,4.20
2023-05-26T09:01:06.400Z,3.50
2023-05-26T09:03:33.515Z,3.60
2023-05-26T09:06:00.604Z,3.90
2023-05-26T09:08:27.655Z,3.60
2023-05-26T09:10:55.079Z,4.80
2023-05-26T09:13:25.938Z,4.40
2023-05-26T09:16:02.798Z,3.90
2023-05-26T09:18:42.481Z,3.70
2023-05-26T09:21:09.608Z,3.80
2023-05-26T09:23:36.490Z,4.20
2023-05-26T09:26:07.391Z,3.50
2023-05-26T09:28:34.476Z,3.60
2023-05-26T09:31:01.645Z,3.50
2023-05-26T09:33:28.789Z,4.40
2023-05-26T09:35:55.836Z,4.90
2023-05-26T09:38:22.889Z,6.10
2023-05-26T09:40:51.062Z,7.00
2023-05-26T09:43:20.602Z,6.70
2023-05-26T09:45:47.721Z,7.40
2023-05-26T09:48:16.109Z,6.90
2023-05-26T09:50:43.286Z,7.20
2023-05-26T09:53:11.500Z,7.20
2023-05-26T09:55:44.052Z,7.20
2023-05-26T09:58:13.754Z,7.80
2023-05-26T10:00:42.770Z,7.40
2023-05-26T10:03:11.479Z,7.50
2023-05-26T10:05:40.986Z,6.80
2023-05-26T10:08:09.154Z,6.70
2023-05-26T10:10:36.599Z,6.10
2023-05-26T10:13:05.234Z,5.40
2023-05-26T10:15:32.941Z,5.60
2023-05-26T10:18:02.082Z,6.50
2023-05-26T10:20:30.934Z,6.20
2023-05-26T10:23:18.873Z,7.50
2023-05-26T10:26:03.080Z,6.80
2023-05-26T10:28:48.193Z,6.80
2023-05-26T10:31:33.023Z,6.90
2023-05-26T10:34:00.593Z,6.70
2023-05-26T10:36:30.180Z,6.30
2023-05-26T10:38:57.162Z,6.60
2023-05-26T10:41:34.218Z,6.00
2023-05-26T10:44:03.286Z,6.70
2023-05-26T10:47:03.913Z,5.70
2023-05-26T10:49:36.723Z,6.10
2023-05-26T10:52:14.907Z,5.80
2023-05-26T10:54:43.666Z,5.80
2023-05-26T10:57:36.282Z,6.10
2023-05-26T11:00:38.980Z,4.60
2023-05-26T11:03:47.294Z,4.80
2023-05-26T11:06:16.842Z,5.30
2023-05-26T11:08:49.756Z,5.30
2023-05-26T11:11:31.066Z,5.80
2023-05-26T11:14:06.218Z,5.40
2023-05-26T11:16:37.886Z,5.60
2023-05-26T11:19:07.198Z,5.30
2023-05-26T11:21:37.202Z,6.00
2023-05-26T11:24:06.264Z,5.60
2023-05-26T11:26:35.123Z,6.40
2023-05-26T11:29:06.143Z,6.00
2023-05-26T11:31:34.241Z,6.00
2023-05-26T11:34:02.478Z,6.00
2023-05-26T11:36:30.195Z,6.60
2023-05-26T11:39:03.587Z,6.10
2023-05-26T11:41:31.230Z,6.50
2023-05-26T11:43:59.443Z,6.70
2023-05-26T11:46:28.723Z,5.80
2023-05-26T11:48:55.881Z,5.90
2023-05-26T11:51:23.656Z,5.00
2023-05-26T11:53:55.892Z,6.20
2023-05-26T11:56:23.255Z,6.20
2023-05-26T11:58:55.408Z,6.30
2023-05-26T12:01:23.817Z,6.10
2023-05-26T12:03:52.855Z,6.60
2023-05-26T12:08:55.362Z,6.70
2023-05-26T12:11:24.682Z,6.30
2023-05-26T12:14:04.946Z,6.80
2023-05-26T12:16:39.061Z,6.70
2023-05-26T12:19:09.377Z,5.70
2023-05-26T12:21:47.910Z,6.20
2023-05-26T12:24:29.190Z,5.70
2023-05-26T12:26:56.967Z,6.10
2023-05-26T12:29:24.073Z,6.00
2023-05-26T12:31:53.200Z,5.30
2023-05-26T12:34:30.513Z,4.90
2023-05-26T12:36:57.893Z,4.90
2023-05-26T12:39:25.119Z,4.80
2023-05-26T12:41:52.509Z,5.30
2023-05-26T12:44:19.663Z,5.30
2023-05-26T12:46:49.965Z,5.50
2023-05-26T12:49:17.177Z,4.90
2023-05-26T12:51:44.577Z,5.00
2023-05-26T12:54:13.418Z,4.90
2023-05-26T12:56:41.629Z,4.90
2023-05-26T12:59:20.288Z,5.30
2023-05-26T13:01:49.229Z,4.50
2023-05-26T13:04:17.975Z,4.10
2023-05-26T13:06:45.218Z,4.50
2023-05-26T13:09:14.443Z,4.20
2023-05-26T13:11:41.423Z,3.00
2023-05-26T13:14:08.497Z,4.00
2023-05-26T13:16:35.853Z,3.90
2023-05-26T13:19:02.863Z,4.70
2023-05-26T13:21:31.110Z,4.40
2023-05-26T13:24:02.458Z,4.40
2023-05-26T13:26:33.526Z,4.00
2023-05-26T13:29:00.709Z,4.20
2023-05-26T13:31:27.825Z,4.30
2023-05-26T13:33:54.914Z,4.20
2023-05-26T13:36:26.273Z,4.00
2023-05-26T13:38:53.394Z,4.20
2023-05-26T13:41:20.704Z,4.20
2023-05-26T13:43:48.465Z,4.40
2023-05-26T13:46:15.800Z,4.20
2023-05-26T13:48:42.986Z,4.80
2023-05-26T13:51:10.029Z,4.30
2023-05-26T13:53:38.710Z,3.60
2023-05-26T13:56:24.944Z,4.00
2023-05-26T13:58:53.818Z,3.60
2023-05-26T14:01:34.991Z,3.70
2023-05-26T14:04:05.204Z,3.70
2023-05-26T14:06:39.232Z,4.00
2023-05-26T14:09:10.121Z,3.80
2023-05-26T14:11:40.541Z,4.20
2023-05-26T14:14:07.996Z,4.20
2023-05-26T14:16:36.657Z,3.60
2023-05-26T14:19:12.797Z,3.60
2023-05-26T14:22:08.495Z,4.00
2023-05-26T14:24:39.290Z,4.10
2023-05-26T14:27:07.774Z,3.90
2023-05-26T14:29:34.908Z,3.50
2023-05-26T14:32:02.155Z,3.60
2023-05-26T14:34:29.638Z,3.70
2023-05-26T14:36:57.262Z,3.70
2023-05-26T14:39:27.352Z,3.80
2023-05-26T14:42:01.830Z,4.00
2023-05-26T14:44:29.608Z,3.10
2023-05-26T14:46:57.636Z,2.70
2023-05-26T14:49:25.018Z,3.30
2023-05-26T14:51:52.769Z,2.90
2023-05-26T14:54:21.587Z,3.20
2023-05-26T14:56:49.214Z,3.40
2023-05-26T14:59:18.570Z,3.40
2023-05-26T15:01:46.215Z,3.90
2023-05-26T15:04:15.374Z,3.90
2023-05-26T15:06:44.527Z,3.50
2023-05-26T15:09:14.643Z,3.40
2023-05-26T15:11:44.188Z,3.80
2023-05-26T15:14:11.261Z,3.50
2023-05-26T15:16:40.227Z,3.70
2023-05-26T15:19:08.215Z,3.20
2023-05-26T15:21:38.044Z,3.10
2023-05-26T15:24:09.066Z,3.20
2023-05-26T15:26:37.582Z,3.40
2023-05-26T15:29:04.823Z,3.70
2023-05-26T15:31:33.006Z,3.60
2023-05-26T15:34:00.412Z,3.50
2023-05-26T15:36:27.584Z,3.30
2023-05-26T15:38:55.236Z,3.70
2023-05-26T15:41:22.740Z,3.30
2023-05-26T15:43:51.230Z,3.10
2023-05-26T15:46:19.125Z,3.10
2023-05-26T15:48:46.927Z,3.40
2023-05-26T15:51:14.590Z,3.50
2023-05-26T15:53:42.042Z,4.00
2023-05-26T15:56:09.608Z,3.50
2023-05-26T15:58:36.756Z,3.50
2023-05-26T16:01:04.822Z,3.30
2023-05-26T16:03:33.105Z,3.20
2023-05-26T16:06:02.205Z,3.10
2023-05-26T16:08:29.280Z,3.20
2023-05-26T16:10:56.583Z,3.30
2023-05-26T16:13:25.440Z,3.40
2023-05-26T16:15:56.035Z,3.60
2023-05-26T16:18:23.029Z,3.90
2023-05-26T16:20:51.888Z,3.50
2023-05-26T16:23:19.932Z,3.50
2023-05-26T16:25:49.645Z,3.20
2023-05-26T16:28:17.494Z,3.80
2023-05-26T16:30:44.750Z,3.00
2023-05-26T16:33:12.013Z,2.80
2023-05-26T16:35:44.731Z,3.10
2023-05-26T16:38:11.998Z,3.10
2023-05-26T16:40:39.522Z,3.80
2023-05-26T16:43:07.278Z,3.30
2023-05-26T16:45:34.902Z,3.40
2023-05-26T16:48:02.285Z,3.40
2023-05-26T16:50:29.472Z,3.30
2023-05-26T16:52:56.468Z,3.10
2023-05-26T16:55:24.395Z,3.20
2023-05-26T16:57:51.494Z,2.80
2023-05-26T17:00:19.028Z,2.90
2023-05-26T17:02:49.557Z,3.10
2023-05-26T17:05:17.201Z,3.60
2023-05-26T17:07:44.184Z,3.60
2023-05-26T17:10:12.068Z,3.40
2023-05-26T17:12:39.113Z,3.20
2023-05-26T17:15:07.243Z,3.10
2023-05-26T17:17:34.746Z,3.00
2023-05-26T17:20:02.053Z,3.00
2023-05-26T17:22:29.886Z,3.20
2023-05-26T17:24:56.921Z,3.20
2023-05-26T17:27:24.914Z,3.60
2023-05-26T17:29:52.113Z,3.70
2023-05-26T17:32:19.595Z,3.50
2023-05-26T17:34:49.535Z,3.70
2023-05-26T17:37:16.857Z,3.40
2023-05-26T17:39:45.481Z,3.50
2023-05-26T17:42:12.581Z,3.60
2023-05-26T17:44:39.634Z,3.20
2023-05-26T17:47:07.031Z,3.70
2023-05-26T17:49:34.949Z,3.40
2023-05-26T17:52:02.007Z,3.40
2023-05-26T17:54:30.246Z,3.80
2023-05-26T17:56:58.963Z,3.90
2023-05-26T17:59:26.930Z,4.20
2023-05-26T18:01:54.416Z,4.30
2023-05-26T18:04:22.256Z,4.20
2023-05-26T18:06:49.274Z,4.30
2023-05-26T18:09:17.139Z,4.30
2023-05-26T18:11:48.441Z,4.50
2023-05-26T18:14:16.250Z,4.20
2023-05-26T18:16:45.618Z,3.90
2023-05-26T18:19:15.788Z,4.20
2023-05-26T18:21:42.856Z,4.00
2023-05-26T18:24:09.830Z,3.40
2023-05-26T18:26:36.825Z,3.70
2023-05-26T18:29:06.410Z,3.70
2023-05-26T18:31:33.836Z,3.90
2023-05-26T18:34:12.204Z,3.70
2023-05-26T18:36:43.959Z,3.60
2023-05-26T18:39:12.314Z,4.10
2023-05-26T18:41:40.756Z,3.50
2023-05-26T18:44:08.707Z,3.90
2023-05-26T18:46:36.135Z,4.30
2023-05-26T18:49:03.312Z,4.10
2023-05-26T18:51:30.413Z,3.90
2023-05-26T18:53:59.794Z,4.10
2023-05-26T18:56:28.830Z,3.80
2023-05-26T18:58:56.221Z,3.40
2023-05-26T19:01:25.820Z,3.50
2023-05-26T19:03:54.468Z,3.70
2023-05-26T19:06:26.720Z,3.40
2023-05-26T19:08:55.677Z,3.90
2023-05-26T19:11:24.045Z,3.90
2023-05-26T19:13:53.285Z,3.60
2023-05-26T19:16:21.763Z,3.90
2023-05-26T19:18:55.309Z,3.50
2023-05-26T19:21:26.468Z,3.80
2023-05-26T19:23:58.551Z,4.00
2023-05-26T19:26:27.287Z,3.60
2023-05-26T19:29:04.102Z,3.30
2023-05-26T19:31:34.895Z,2.90
2023-05-26T19:34:02.694Z,3.30
2023-05-26T19:36:30.460Z,3.70
2023-05-26T19:38:58.052Z,4.00
2023-05-26T19:43:53.633Z,3.30
2023-05-26T19:46:20.654Z,3.70
2023-05-26T19:48:47.926Z,3.60
2023-05-26T19:51:14.828Z,3.70
2023-05-26T19:53:41.797Z,3.40
2023-05-26T19:56:08.762Z,3.40
2023-05-26T19:58:35.804Z,3.70
2023-05-26T20:01:02.915Z,3.40
2023-05-26T20:03:30.170Z,3.70
2023-05-26T20:05:57.588Z,3.40
2023-05-26T20:08:24.536Z,2.90
2023-05-26T20:10:51.489Z,3.50
2023-05-26T20:13:19.654Z,3.40
2023-05-26T20:15:47.063Z,3.70
2023-05-26T20:18:14.040Z,3.30
2023-05-26T20:20:41.137Z,3.50
2023-05-26T20:23:08.250Z,3.60
2023-05-26T20:25:35.398Z,3.50
2023-05-26T20:28:02.342Z,3.70
2023-05-26T20:30:29.398Z,3.70
2023-05-26T20:32:56.525Z,3.30
2023-05-26T20:35:23.810Z,4.20
2023-05-26T20:37:50.932Z,3.20
2023-05-26T20:40:23.436Z,3.20
2023-05-26T20:42:51.465Z,3.00
2023-05-26T20:45:19.199Z,3.40
2023-05-26T20:47:46.912Z,3.60
2023-05-26T20:50:14.149Z,3.60
2023-05-26T20:52:41.511Z,3.70
2023-05-26T20:55:09.372Z,3.50
2023-05-26T20:57:36.412Z,3.50
2023-05-26T21:00:04.259Z,3.20
2023-05-26T21:02:31.285Z,3.50
2023-05-26T21:04:58.299Z,3.30
2023-05-26T21:07:26.642Z,3.70
2023-05-26T21:09:53.671Z,2.90
2023-05-26T21:12:20.590Z,2.80
2023-05-26T21:14:48.072Z,3.40
2023-05-26T21:17:15.504Z,2.80
2023-05-26T21:19:42.537Z,3.80
2023-05-26T21:22:09.530Z,3.20
2023-05-26T21:24:36.421Z,2.90
2023-05-26T21:27:03.599Z,3.20
2023-05-26T21:29:30.640Z,3.00
2023-05-26T21:31:57.593Z,3.20
2023-05-26T21:34:24.617Z,3.40
2023-05-26T21:36:51.706Z,3.50
2023-05-26T21:39:18.754Z,3.40
2023-05-26T21:41:45.818Z,3.20
2023-05-26T21:44:12.800Z,3.50
2023-05-26T21:46:40.264Z,3.20
2023-05-26T21:49:07.512Z,3.20
2023-05-26T21:51:38.244Z,3.40
2023-05-26T21:54:05.622Z,3.30
2023-05-26T21:56:33.127Z,3.00
2023-05-26T21:59:00.119Z,3.40
2023-05-26T22:01:28.052Z,3.50
2023-05-26T22:03:55.161Z,3.00
2023-05-26T22:06:22.176Z,3.00
2023-05-26T22:08:49.033Z,2.80
2023-05-26T22:11:15.958Z,3.20
2023-05-26T22:13:43.145Z,3.10
2023-05-26T22:16:10.182Z,3.10
2023-05-26T22:18:37.498Z,2.80
2023-05-26T22:21:04.681Z,3.20
2023-05-26T22:23:31.682Z,3.20
2023-05-26T22:25:58.789Z,3.40
2023-05-26T22:28:26.467Z,3.50
2023-05-26T22:31:03.451Z,3.30
2023-05-26T22:33:30.831Z,3.40
2023-05-26T22:35:57.994Z,2.90
2023-05-26T22:38:26.702Z,3.40
2023-05-26T22:40:53.884Z,3.20
2023-05-26T22:43:21.084Z,3.30
2023-05-26T22:45:47.979Z,3.40
2023-05-26T22:48:15.096Z,3.20
2023-05-26T22:50:42.586Z,3.10
2023-05-26T22:53:09.581Z,3.10
2023-05-26T22:55:47.075Z,3.00
2023-05-26T22:58:18.428Z,3.10
2023-05-26T23:00:45.605Z,2.90
2023-05-26T23:03:12.625Z,3.10
2023-05-26T23:05:39.775Z,3.10
2023-05-26T23:08:06.662Z,3.10
2023-05-26T23:10:33.700Z,3.20
2023-05-26T23:13:02.827Z,3.20
2023-05-26T23:15:32.240Z,3.10
2023-05-26T23:17:59.388Z,3.40
2023-05-26T23:20:27.779Z,3.30
2023-05-26T23:22:54.745Z,3.30
2023-05-26T23:25:22.116Z,3.20
2023-05-26T23:27:49.142Z,3.30
2023-05-26T23:30:16.521Z,3.30
2023-05-26T23:32:43.504Z,3.20
2023-05-26T23:35:11.703Z,3.30
2023-05-26T23:37:39.433Z,3.40
2023-05-26T23:40:08.144Z,3.30
2023-05-26T23:42:35.332Z,3.40
2023-05-26T23:45:02.432Z,3.10
2023-05-26T23:47:29.426Z,3.00
2023-05-26T23:49:56.497Z,3.10
2023-05-26T23:52:23.362Z,2.70
2023-05-26T23:54:50.385Z,2.90
2023-05-26T23:57:17.500Z,2.70
2023-05-26T23:59:44.543Z,3.30
